Time,TemperatureF,DewpointF,PressureIn,WindDirection,WindDirectionDegrees,WindSpeedMPH,WindSpeedGustMPH,Humidity,HourlyPrecipIn,Conditions,Clouds,dailyrainin,SoftwareType,DateUTC
2013-03-11 00:02:00,56.0,54.0,30.12,ENE,78,0.0,0.0,94,0.00,,,0.00,,2013-03-11 04:02:00,
2013-03-11 00:12:00,56.0,54.0,30.12,ENE,78,0.0,0.0,94,0.00,,,0.00,,2013-03-11 04:12:00,
2013-03-11 00:22:00,55.0,53.0,30.12,ENE,78,0.0,0.0,94,0.00,,,0.00,,2013-03-11 04:22:00,
2013-03-11 00:32:00,55.0,53.0,30.12,ENE,78,0.0,0.0,94,0.00,,,0.00,,2013-03-11 04:32:00,
2013-03-11 00:42:00,55.0,53.0,30.12,ENE,78,0.0,0.0,94,0.00,,,0.00,,2013-03-11 04:42:00,
2013-03-11 00:52:00,55.0,54.0,30.11,ENE,78,0.0,0.0,95,0.00,,,0.00,,2013-03-11 04:52:00,
2013-03-11 01:03:00,54.0,53.0,30.11,ENE,78,0.0,0.0,95,0.00,,,0.00,,2013-03-11 05:03:00,
2013-03-11 01:12:00,54.0,53.0,30.11,ENE,78,0.0,0.0,95,0.00,,,0.00,,2013-03-11 05:12:00,
2013-03-11 01:22:00,54.0,53.0,30.11,ENE,78,0.0,0.0,95,0.00,,,0.00,,2013-03-11 05:22:00,
2013-03-11 01:32:00,54.0,53.0,30.11,ENE,78,0.0,0.0,96,0.00,,,0.00,,2013-03-11 05:32:00,
2013-03-11 01:42:00,54.0,53.0,30.11,ENE,78,0.0,0.0,96,0.00,,,0.00,,2013-03-11 05:42:00,
2013-03-11 01:52:00,54.0,53.0,30.10,ENE,78,0.0,0.0,96,0.00,,,0.00,,2013-03-11 05:52:00,
2013-03-11 02:02:00,54.0,53.0,30.09,ENE,78,0.0,0.0,96,0.00,,,0.00,,2013-03-11 06:02:00,
2013-03-11 02:12:00,54.0,53.0,30.09,ENE,78,0.0,0.0,96,0.00,,,0.00,,2013-03-11 06:12:00,
2013-03-11 02:22:00,54.0,53.0,30.09,ENE,78,0.0,0.0,96,0.00,,,0.00,,2013-03-11 06:22:00,
2013-03-11 02:32:00,54.0,53.0,30.09,ENE,78,0.0,0.0,96,0.00,,,0.00,,2013-03-11 06:32:00,
2013-03-11 02:42:00,54.0,53.0,30.09,ENE,78,0.0,0.0,96,0.00,,,0.00,,2013-03-11 06:42:00,
2013-03-11 02:53:00,53.0,52.0,30.09,ENE,78,0.0,0.0,96,0.00,,,0.00,,2013-03-11 06:53:00,
2013-03-11 03:03:00,53.0,52.0,30.07,ENE,78,0.0,0.0,97,0.00,,,0.00,,2013-03-11 07:03:00,
2013-03-11 03:12:00,53.0,52.0,30.06,ENE,78,0.0,0.0,96,0.00,,,0.00,,2013-03-11 07:12:00,
2013-03-11 03:22:00,53.0,52.0,30.06,ENE,78,0.0,0.0,96,0.00,,,0.00,,2013-03-11 07:22:00,
2013-03-11 03:32:00,52.0,51.0,30.06,ENE,78,0.0,0.0,96,0.00,,,0.00,,2013-03-11 07:32:00,
2013-03-11 03:42:00,52.0,51.0,30.06,ENE,78,0.0,0.0,96,0.00,,,0.00,,2013-03-11 07:42:00,
2013-03-11 03:52:00,52.0,51.0,30.05,ENE,78,0.0,0.0,96,0.00,,,0.00,,2013-03-11 07:52:00,
2013-03-11 04:02:00,52.0,51.0,30.05,ENE,78,0.0,0.0,97,0.00,,,0.00,,2013-03-11 08:02:00,
2013-03-11 04:12:00,52.0,51.0,30.05,ENE,78,0.0,0.0,97,0.00,,,0.00,,2013-03-11 08:12:00,
2013-03-11 04:22:00,52.0,51.0,30.05,ENE,78,0.0,0.0,97,0.00,,,0.00,,2013-03-11 08:22:00,
2013-03-11 04:32:00,53.0,52.0,30.04,ENE,78,0.0,0.0,97,0.00,,,0.00,,2013-03-11 08:32:00,
2013-03-11 04:42:00,53.0,52.0,30.04,ENE,78,0.0,0.0,97,0.00,,,0.00,,2013-03-11 08:42:00,
2013-03-11 04:52:00,53.0,52.0,30.04,ENE,78,0.0,0.0,97,0.00,,,0.00,,2013-03-11 08:52:00,
2013-03-11 05:02:00,54.0,53.0,30.04,ENE,78,0.0,0.0,97,0.00,,,0.00,,2013-03-11 09:02:00,
2013-03-11 05:12:00,54.0,53.0,30.04,ENE,78,0.0,0.0,97,0.00,,,0.00,,2013-03-11 09:12:00,
2013-03-11 05:23:00,55.0,54.0,30.04,ENE,78,0.0,0.0,98,0.00,,,0.00,,2013-03-11 09:23:00,
2013-03-11 05:32:00,55.0,54.0,30.04,ENE,78,0.0,0.0,97,0.00,,,0.00,,2013-03-11 09:32:00,
2013-03-11 05:42:00,55.0,54.0,30.04,ENE,78,0.0,0.0,97,0.00,,,0.00,,2013-03-11 09:42:00,
2013-03-11 05:52:00,55.0,54.0,30.03,ENE,78,0.0,0.0,97,0.00,,,0.00,,2013-03-11 09:52:00,
2013-03-11 06:02:00,54.0,53.0,30.03,ENE,78,0.0,0.0,97,0.00,,,0.00,,2013-03-11 10:02:00,
2013-03-11 06:12:00,54.0,53.0,30.03,ENE,78,0.0,0.0,97,0.00,,,0.00,,2013-03-11 10:12:00,
2013-03-11 06:22:00,54.0,53.0,30.03,ENE,78,0.0,0.0,97,0.00,,,0.00,,2013-03-11 10:22:00,
2013-03-11 06:32:00,53.0,52.0,30.03,ENE,78,0.0,0.0,97,0.00,,,0.00,,2013-03-11 10:32:00,
2013-03-11 06:42:00,53.0,52.0,30.03,ENE,78,0.0,0.0,97,0.00,,,0.00,,2013-03-11 10:42:00,
2013-03-11 06:52:00,53.0,52.0,30.03,ENE,78,0.0,0.0,97,0.00,,,0.00,,2013-03-11 10:52:00,
2013-03-11 07:02:00,52.0,51.0,30.04,ENE,78,0.0,0.0,97,0.00,,,0.00,,2013-03-11 11:02:00,
2013-03-11 07:12:00,52.0,51.0,30.04,ENE,78,0.0,0.0,97,0.00,,,0.00,,2013-03-11 11:12:00,
2013-03-11 07:22:00,52.0,51.0,30.03,ENE,78,0.0,0.0,97,0.00,,,0.00,,2013-03-11 11:22:00,
2013-03-11 07:32:00,52.0,51.0,30.04,ENE,78,0.0,0.0,97,0.00,,,0.00,,2013-03-11 11:32:00,
2013-03-11 07:42:00,52.0,51.0,30.04,ENE,78,0.0,0.0,97,0.00,,,0.00,,2013-03-11 11:42:00,
2013-03-11 07:53:00,52.0,51.0,30.04,ENE,78,0.0,0.0,97,0.00,,,0.00,,2013-03-11 11:53:00,
2013-03-11 08:02:00,52.0,51.0,30.04,ENE,78,0.0,0.0,97,0.00,,,0.00,,2013-03-11 12:02:00,
2013-03-11 08:12:00,52.0,51.0,30.04,ENE,78,0.0,0.0,97,0.00,,,0.00,,2013-03-11 12:12:00,
2013-03-11 08:22:00,52.0,51.0,30.05,ENE,78,0.0,0.0,97,0.00,,,0.00,,2013-03-11 12:22:00,
2013-03-11 08:32:00,53.0,52.0,30.05,ENE,78,0.0,0.0,98,0.00,,,0.00,,2013-03-11 12:32:00,
2013-03-11 08:43:00,53.0,52.0,30.05,ENE,78,0.0,0.0,98,0.00,,,0.00,,2013-03-11 12:43:00,
2013-03-11 08:53:00,57.0,56.0,30.05,ENE,78,0.0,0.0,98,0.00,,,0.00,,2013-03-11 12:53:00,
2013-03-11 09:02:00,60.0,59.0,30.05,ENE,78,0.0,0.0,98,0.00,,,0.00,,2013-03-11 13:02:00,
2013-03-11 09:12:00,60.0,59.0,30.05,ENE,78,0.0,0.0,98,0.00,,,0.00,,2013-03-11 13:12:00,
2013-03-11 09:22:00,62.0,61.0,30.05,ESE,115,0.0,0.0,98,0.00,,,0.00,,2013-03-11 13:22:00,
2013-03-11 09:32:00,66.0,61.0,30.06,East,93,1.0,3.0,84,0.00,,,0.00,,2013-03-11 13:32:00,
2013-03-11 09:42:00,66.0,61.0,30.06,East,93,1.0,3.0,84,0.00,,,0.00,,2013-03-11 13:42:00,
2013-03-11 09:53:00,69.0,61.0,30.05,East,91,3.0,6.0,76,0.00,,,0.00,,2013-03-11 13:53:00,
2013-03-11 10:02:00,70.0,61.0,30.05,ENE,74,3.0,9.0,72,0.00,,,0.00,,2013-03-11 14:02:00,
2013-03-11 10:12:00,70.0,61.0,30.05,ENE,74,3.0,9.0,72,0.00,,,0.00,,2013-03-11 14:12:00,
2013-03-11 10:22:00,71.0,59.0,30.06,East,88,4.0,10.0,67,0.00,,,0.00,,2013-03-11 14:22:00,
2013-03-11 10:33:00,71.0,58.0,30.06,ENE,75,3.0,12.0,63,0.00,,,0.00,,2013-03-11 14:33:00,
2013-03-11 10:42:00,71.0,58.0,30.06,ENE,75,3.0,12.0,63,0.00,,,0.00,,2013-03-11 14:42:00,
2013-03-11 10:53:00,72.0,59.0,30.06,East,101,5.0,12.0,64,0.00,,,0.00,,2013-03-11 14:53:00,
2013-03-11 11:02:00,72.0,58.0,30.05,ESE,102,6.0,12.0,62,0.00,,,0.00,,2013-03-11 15:02:00,
2013-03-11 11:13:00,72.0,58.0,30.05,ESE,102,6.0,12.0,62,0.00,,,0.00,,2013-03-11 15:13:00,
2013-03-11 11:22:00,74.0,60.0,30.05,South,178,2.0,12.0,61,0.00,,,0.00,,2013-03-11 15:22:00,
2013-03-11 11:32:00,74.0,58.0,30.05,ESE,114,5.0,14.0,58,0.00,,,0.00,,2013-03-11 15:32:00,
2013-03-11 11:42:00,74.0,58.0,30.05,ESE,114,5.0,14.0,58,0.00,,,0.00,,2013-03-11 15:42:00,
2013-03-11 11:53:00,73.0,58.0,30.05,ENE,72,5.0,12.0,59,0.00,,,0.00,,2013-03-11 15:53:00,
2013-03-11 12:02:00,73.0,58.0,30.05,SSE,150,5.0,10.0,60,0.00,,,0.00,,2013-03-11 16:02:00,
2013-03-11 12:12:00,73.0,58.0,30.05,SSE,150,5.0,10.0,60,0.00,,,0.00,,2013-03-11 16:12:00,
2013-03-11 12:22:00,75.0,59.0,30.05,East,99,5.0,13.0,57,0.00,,,0.00,,2013-03-11 16:22:00,
2013-03-11 12:32:00,74.0,58.0,30.04,ESE,104,5.0,13.0,58,0.00,,,0.00,,2013-03-11 16:32:00,
2013-03-11 12:43:00,74.0,58.0,30.04,ESE,104,5.0,13.0,58,0.00,,,0.00,,2013-03-11 16:43:00,
2013-03-11 12:52:00,74.0,59.0,30.03,ENE,78,6.0,12.0,60,0.00,,,0.00,,2013-03-11 16:52:00,
2013-03-11 13:02:00,75.0,59.0,30.03,ESE,104,5.0,12.0,57,0.00,,,0.00,,2013-03-11 17:02:00,
2013-03-11 13:15:00,75.0,59.0,30.03,ESE,104,5.0,12.0,57,0.00,,,0.00,,2013-03-11 17:15:00,
2013-03-11 13:26:00,74.0,59.0,30.02,East,89,3.0,5.0,59,0.00,,,0.00,,2013-03-11 17:26:00,
2013-03-11 13:35:00,74.0,58.0,30.02,SE,134,5.0,12.0,58,0.00,,,0.00,,2013-03-11 17:35:00,
2013-03-11 13:42:00,74.0,58.0,30.02,SE,134,5.0,12.0,58,0.00,,,0.00,,2013-03-11 17:42:00,
2013-03-11 13:53:00,75.0,59.0,30.02,East,98,3.0,8.0,58,0.00,,,0.00,,2013-03-11 17:53:00,
2013-03-11 14:02:00,76.0,60.0,30.01,ESE,115,3.0,13.0,58,0.00,,,0.00,,2013-03-11 18:02:00,
2013-03-11 14:12:00,76.0,60.0,30.01,ESE,115,3.0,13.0,58,0.00,,,0.00,,2013-03-11 18:12:00,
2013-03-11 14:23:00,75.0,60.0,30.01,East,92,1.0,7.0,59,0.00,,,0.00,,2013-03-11 18:23:00,
2013-03-11 14:32:00,75.0,60.0,30.02,East,92,2.0,5.0,59,0.00,,,0.00,,2013-03-11 18:32:00,
2013-03-11 14:42:00,75.0,60.0,30.02,East,92,2.0,5.0,59,0.00,,,0.00,,2013-03-11 18:42:00,
2013-03-11 14:53:00,74.0,60.0,30.01,ENE,73,2.0,6.0,61,0.00,,,0.00,,2013-03-11 18:53:00,
2013-03-11 15:02:00,75.0,60.0,30.01,SE,132,1.0,5.0,60,0.00,,,0.00,,2013-03-11 19:02:00,
2013-03-11 15:12:00,75.0,60.0,30.01,SE,132,1.0,5.0,60,0.00,,,0.00,,2013-03-11 19:12:00,
2013-03-11 15:22:00,75.0,61.0,30.00,SE,127,2.0,6.0,62,0.00,,,0.00,,2013-03-11 19:22:00,
2013-03-11 15:33:00,75.0,61.0,30.00,ESE,118,1.0,10.0,61,0.00,,,0.00,,2013-03-11 19:33:00,
2013-03-11 15:42:00,75.0,61.0,30.00,ESE,118,1.0,10.0,61,0.00,,,0.00,,2013-03-11 19:42:00,
2013-03-11 15:53:00,74.0,61.0,29.99,SSW,199,3.0,7.0,63,0.00,,,0.00,,2013-03-11 19:53:00,
2013-03-11 16:02:00,74.0,61.0,29.98,ESE,123,2.0,7.0,65,0.00,,,0.00,,2013-03-11 20:02:00,
2013-03-11 16:12:00,74.0,61.0,29.98,ESE,123,2.0,7.0,65,0.00,,,0.00,,2013-03-11 20:12:00,
2013-03-11 16:22:00,75.0,62.0,29.97,East,96,5.0,12.0,64,0.00,,,0.00,,2013-03-11 20:22:00,
2013-03-11 16:32:00,74.0,62.0,29.96,ESE,115,4.0,12.0,66,0.00,,,0.00,,2013-03-11 20:32:00,
2013-03-11 16:43:00,74.0,62.0,29.96,ESE,115,4.0,12.0,66,0.00,,,0.00,,2013-03-11 20:43:00,
2013-03-11 16:53:00,74.0,61.0,29.96,SE,133,2.0,6.0,65,0.00,,,0.00,,2013-03-11 20:53:00,
2013-03-11 17:03:00,75.0,62.0,29.96,ESE,110,1.0,6.0,64,0.00,,,0.00,,2013-03-11 21:03:00,
2013-03-11 17:12:00,75.0,62.0,29.96,ESE,110,1.0,6.0,64,0.00,,,0.00,,2013-03-11 21:12:00,
2013-03-11 17:22:00,74.0,62.0,29.95,ESE,106,2.0,10.0,66,0.00,,,0.00,,2013-03-11 21:22:00,
2013-03-11 17:32:00,74.0,62.0,29.94,SE,145,3.0,12.0,67,0.00,,,0.00,,2013-03-11 21:32:00,
2013-03-11 17:44:00,74.0,62.0,29.94,SE,145,3.0,12.0,67,0.00,,,0.00,,2013-03-11 21:44:00,
2013-03-11 17:53:00,73.0,62.0,29.93,East,91,3.0,12.0,68,0.00,,,0.00,,2013-03-11 21:53:00,
2013-03-11 18:03:00,73.0,62.0,29.93,East,88,6.0,13.0,69,0.00,,,0.00,,2013-03-11 22:03:00,
2013-03-11 18:12:00,73.0,62.0,29.93,East,88,6.0,13.0,69,0.00,,,0.00,,2013-03-11 22:12:00,
2013-03-11 18:22:00,73.0,62.0,29.94,SSE,159,5.0,9.0,69,0.00,,,0.00,,2013-03-11 22:22:00,
2013-03-11 18:32:00,72.0,62.0,29.94,ESE,117,1.0,8.0,71,0.00,,,0.00,,2013-03-11 22:32:00,
2013-03-11 18:43:00,72.0,62.0,29.94,ESE,117,1.0,8.0,71,0.00,,,0.00,,2013-03-11 22:43:00,
2013-03-11 18:53:00,72.0,62.0,29.96,ESE,109,1.0,6.0,72,0.00,,,0.00,,2013-03-11 22:53:00,
2013-03-11 19:03:00,71.0,62.0,29.95,ESE,123,3.0,10.0,73,0.00,,,0.00,,2013-03-11 23:03:00,
2013-03-11 19:12:00,71.0,62.0,29.95,ESE,123,3.0,10.0,73,0.00,,,0.00,,2013-03-11 23:12:00,
2013-03-11 19:22:00,71.0,62.0,29.94,East,90,2.0,5.0,74,0.00,,,0.00,,2013-03-11 23:22:00,
2013-03-11 19:32:00,70.0,62.0,29.95,ESE,109,2.0,6.0,75,0.00,,,0.00,,2013-03-11 23:32:00,
2013-03-11 19:43:00,70.0,62.0,29.95,ESE,102,1.0,8.0,75,0.00,,,0.00,,2013-03-11 23:43:00,
2013-03-11 19:53:00,70.0,62.0,29.95,ESE,102,1.0,8.0,75,0.00,,,0.00,,2013-03-11 23:53:00,
2013-03-11 20:02:00,70.0,62.0,29.95,East,89,1.0,3.0,75,0.00,,,0.00,,2013-03-12 00:02:00,
2013-03-11 20:12:00,70.0,62.0,29.95,East,89,1.0,3.0,75,0.00,,,0.00,,2013-03-12 00:12:00,
2013-03-11 20:23:00,70.0,62.0,29.95,East,96,3.0,5.0,75,0.00,,,0.00,,2013-03-12 00:23:00,
2013-03-11 20:33:00,69.0,61.0,29.94,ESE,121,2.0,7.0,75,0.00,,,0.00,,2013-03-12 00:33:00,
2013-03-11 20:42:00,69.0,61.0,29.94,ESE,121,2.0,7.0,75,0.00,,,0.00,,2013-03-12 00:42:00,
2013-03-11 20:53:00,69.0,61.0,29.94,SE,134,2.0,6.0,75,0.00,,,0.00,,2013-03-12 00:53:00,
2013-03-11 21:02:00,69.0,61.0,29.94,ESE,108,2.0,5.0,75,0.00,,,0.00,,2013-03-12 01:02:00,
2013-03-11 21:12:00,69.0,61.0,29.94,ESE,108,2.0,5.0,75,0.00,,,0.00,,2013-03-12 01:12:00,
2013-03-11 21:22:00,69.0,61.0,29.94,SSE,156,2.0,6.0,75,0.00,,,0.00,,2013-03-12 01:22:00,
2013-03-11 21:33:00,68.0,60.0,29.94,SSE,150,0.0,5.0,76,0.00,,,0.00,,2013-03-12 01:33:00,
2013-03-11 21:42:00,68.0,60.0,29.94,SSE,150,0.0,5.0,76,0.00,,,0.00,,2013-03-12 01:42:00,
2013-03-11 21:53:00,68.0,60.0,29.95,SE,134,1.0,3.0,76,0.00,,,0.00,,2013-03-12 01:53:00,
2013-03-11 22:02:00,68.0,61.0,29.96,ESE,111,0.0,3.0,77,0.00,,,0.00,,2013-03-12 02:02:00,
2013-03-11 22:12:00,68.0,61.0,29.96,ESE,111,0.0,3.0,77,0.00,,,0.00,,2013-03-12 02:12:00,
2013-03-11 22:22:00,67.0,60.0,29.97,SE,134,1.0,3.0,78,0.00,,,0.00,,2013-03-12 02:22:00,
2013-03-11 22:32:00,67.0,60.0,29.97,ESE,122,1.0,3.0,78,0.00,,,0.00,,2013-03-12 02:32:00,
2013-03-11 22:42:00,67.0,60.0,29.97,ESE,122,1.0,3.0,78,0.00,,,0.00,,2013-03-12 02:42:00,
2013-03-11 22:52:00,67.0,60.0,29.98,SSE,166,1.0,6.0,79,0.00,,,0.00,,2013-03-12 02:52:00,
2013-03-11 23:02:00,67.0,60.0,29.98,South,170,0.0,0.0,79,0.00,,,0.00,,2013-03-12 03:02:00,
2013-03-11 23:12:00,67.0,60.0,29.98,South,170,0.0,0.0,79,0.00,,,0.00,,2013-03-12 03:12:00,
2013-03-11 23:22:00,66.0,60.0,29.98,SE,142,1.0,2.0,81,0.00,,,0.00,,2013-03-12 03:22:00,
2013-03-11 23:32:00,66.0,60.0,29.98,SSE,167,0.0,0.0,82,0.00,,,0.00,,2013-03-12 03:32:00,
2013-03-11 23:42:00,66.0,60.0,29.98,SSE,167,0.0,0.0,82,0.00,,,0.00,,2013-03-12 03:42:00,
2013-03-11 23:53:00,65.0,60.0,29.98,SE,141,0.0,1.0,83,0.00,,,0.00,,2013-03-12 03:53:00,